Time;durP1;ratioP1;P1;durP2;ratioP2;P2;SDS_P1;SDS_P2;PMS_P1;PMS_P2;Temp;Humidity;BMP_temperature;BMP_pressure;BME280_temperature;BME280_humidity;BME280_pressure;Samples;Min_cycle;Max_cycle;Signal;HPM_P1;HPM_P2
2023/04/04 00:00:50;;;;;;;0.20;0.20;;;;;;;18.82;45.66;102523.09;5116210;28;20043;-45
2023/04/04 00:03:16;;;;;;;0.20;0.20;;;;;;;18.83;45.80;102523.97;5116414;27;20047;-45
2023/04/04 00:05:42;;;;;;;0.20;0.20;;;;;;;18.83;45.78;102521.19;5115769;28;20069;-47
2023/04/04 00:08:08;;;;;;;0.20;0.20;;;;;;;18.83;45.48;102529.47;5116986;27;20054;-44
2023/04/04 00:10:33;;;;;;;0.30;0.30;;;;;;;18.83;45.69;102527.56;5116175;27;20043;-47
2023/04/04 00:12:59;;;;;;;0.20;0.20;;;;;;;18.84;45.75;102528.41;5120770;27;20035;-47
2023/04/04 00:15:25;;;;;;;0.30;0.30;;;;;;;18.83;45.80;102524.81;5116132;28;20507;-45
2023/04/04 00:17:50;;;;;;;0.28;0.28;;;;;;;18.84;45.58;102525.63;5116247;28;20058;-44
2023/04/04 00:20:16;;;;;;;0.20;0.20;;;;;;;18.83;45.73;102523.97;5116189;28;20046;-45
2023/04/04 00:22:42;;;;;;;0.28;0.28;;;;;;;18.82;45.40;102525.84;5115700;28;20058;-46
2023/04/04 00:25:08;;;;;;;0.30;0.30;;;;;;;18.83;45.40;102523.97;5115851;27;20115;-46
2023/04/04 00:27:34;;;;;;;0.25;0.25;;;;;;;18.83;45.45;102523.97;5115263;28;20451;-45
2023/04/04 00:29:59;;;;;;;0.30;0.30;;;;;;;18.83;45.59;102524.81;5115937;27;20051;-45
2023/04/04 00:32:25;;;;;;;0.20;0.20;;;;;;;18.83;45.77;102532.25;5115862;27;20420;-46
2023/04/04 00:34:52;;;;;;;0.30;0.30;;;;;;;18.83;45.55;102526.72;5115859;28;20440;-44
2023/04/04 00:37:18;;;;;;;0.30;0.30;;;;;;;18.83;45.51;102529.47;5115582;27;20058;-46
2023/04/04 00:39:43;;;;;;;0.20;0.20;;;;;;;18.84;45.84;102531.16;5115837;28;20051;-46
2023/04/04 00:42:09;;;;;;;0.20;0.20;;;;;;;18.83;45.50;102515.69;5115499;28;20051;-48
2023/04/04 00:44:35;;;;;;;0.22;0.22;;;;;;;18.83;45.43;102519.28;5114750;28;20127;-49
2023/04/04 00:47:01;;;;;;;0.20;0.20;;;;;;;18.83;45.68;102523.97;5115375;27;20055;-45
2023/04/04 00:49:27;;;;;;;0.30;0.30;;;;;;;18.82;45.73;102523.09;5116322;27;20139;-45
2023/04/04 00:51:53;;;;;;;0.28;0.28;;;;;;;18.83;45.40;102521.19;5115265;27;20043;-47
2023/04/04 00:54:19;;;;;;;0.30;0.30;;;;;;;18.83;45.63;102512.91;5114978;27;20475;-47
2023/04/04 00:56:45;;;;;;;0.30;0.30;;;;;;;18.82;45.68;102523.09;5115754;27;20104;-47
2023/04/04 00:59:10;;;;;;;0.30;0.30;;;;;;;18.83;45.51;102524.81;5115415;28;20453;-47
2023/04/04 01:01:36;;;;;;;0.30;0.30;;;;;;;18.84;45.43;102520.13;5115294;28;20074;-47
2023/04/04 01:04:03;;;;;;;0.22;0.22;;;;;;;18.83;45.39;102524.81;5114897;28;20054;-46
2023/04/04 01:06:29;;;;;;;0.30;0.30;;;;;;;18.83;45.73;102521.19;5115224;27;20093;-45
2023/04/04 01:08:55;;;;;;;0.20;0.20;;;;;;;18.82;45.44;102525.84;5115475;27;20039;-46
2023/04/04 01:11:20;;;;;;;0.20;0.20;;;;;;;18.83;45.29;102524.81;5122518;27;20592;-46
2023/04/04 01:13:46;;;;;;;0.20;0.20;;;;;;;18.83;45.52;102529.47;5115372;28;20452;-48
2023/04/04 01:16:12;;;;;;;0.20;0.20;;;;;;;18.83;45.58;102518.44;5113905;28;20357;-45
2023/04/04 01:18:40;;;;;;;0.30;0.30;;;;;;;18.83;45.50;102526.72;5113736;28;20269;-46
2023/04/04 01:21:09;;;;;;;0.20;0.20;;;;;;;18.83;45.36;102519.28;5115493;27;20047;-46
2023/04/04 01:23:52;;;;;;;0.20;0.20;;;;;;;18.83;45.61;102515.69;5115447;27;20136;-45
2023/04/04 01:26:20;;;;;;;0.25;0.25;;;;;;;18.82;45.52;102511.22;5115147;27;20044;-46
2023/04/04 01:28:46;;;;;;;0.20;0.20;;;;;;;18.82;45.58;102512.06;5114834;27;20115;-47
2023/04/04 01:31:13;;;;;;;0.20;0.20;;;;;;;18.83;45.44;102518.44;5114520;27;20454;-46
2023/04/04 01:33:42;;;;;;;0.20;0.20;;;;;;;18.84;45.54;102514.59;5114135;28;20143;-45
2023/04/04 01:36:30;;;;;;;0.22;0.22;;;;;;;18.83;45.60;102510.16;5115284;27;20043;-46
2023/04/04 01:39:19;;;;;;;0.20;0.20;;;;;;;18.82;45.56;102514.81;5114175;28;20047;-46
2023/04/04 01:41:47;;;;;;;0.30;0.30;;;;;;;18.82;45.21;102514.81;5112731;28;20511;-45
2023/04/04 01:44:14;;;;;;;0.20;0.20;;;;;;;18.82;45.65;102509.28;5096837;28;20561;-48
2023/04/04 01:46:40;;;;;;;0.20;0.20;;;;;;;18.83;45.46;102507.41;5114524;28;20043;-44
2023/04/04 01:49:06;;;;;;;0.20;0.20;;;;;;;18.83;45.59;102511.00;5115171;28;20579;-44
2023/04/04 01:51:33;;;;;;;0.30;0.30;;;;;;;18.83;45.31;102504.63;5115014;28;20514;-47
2023/04/04 01:53:59;;;;;;;0.30;0.30;;;;;;;18.82;45.46;102506.53;5115053;28;20136;-46
2023/04/04 01:56:25;;;;;;;0.25;0.25;;;;;;;18.82;45.29;102503.78;5115012;28;20123;-46
2023/04/04 01:58:52;;;;;;;0.22;0.22;;;;;;;18.83;45.61;102499.97;5114614;28;20538;-45
2023/04/04 02:01:18;;;;;;;0.20;0.20;;;;;;;18.83;45.44;102504.63;5114498;27;20087;-45
2023/04/04 02:03:44;;;;;;;0.20;0.20;;;;;;;18.82;45.38;102509.28;5114390;27;20043;-46
2023/04/04 02:06:10;;;;;;;0.20;0.20;;;;;;;18.83;45.26;102504.63;5116560;28;20481;-46
2023/04/04 02:08:37;;;;;;;0.20;0.20;;;;;;;18.83;45.33;102507.41;5117853;27;20047;-46
2023/04/04 02:11:03;;;;;;;0.30;0.30;;;;;;;18.83;45.46;102507.41;5117154;27;20143;-46
2023/04/04 02:13:28;;;;;;;0.30;0.30;;;;;;;18.83;45.45;102505.47;5118138;28;20051;-46
2023/04/04 02:15:54;;;;;;;0.20;0.20;;;;;;;18.82;45.30;102501.00;5118041;28;20047;-46
2023/04/04 02:18:20;;;;;;;0.30;0.30;;;;;;;18.84;45.62;102500.78;5117619;28;20255;-46
2023/04/04 02:20:45;;;;;;;0.30;0.30;;;;;;;18.82;45.34;102506.53;5117799;27;20054;-48
2023/04/04 02:23:11;;;;;;;0.30;0.30;;;;;;;18.82;45.38;102492.72;5117765;28;20050;-46
2023/04/04 02:25:37;;;;;;;0.22;0.22;;;;;;;18.84;45.32;102504.38;5118271;28;20103;-47
2023/04/04 02:28:02;;;;;;;0.30;0.30;;;;;;;18.82;45.21;102498.25;5117805;28;20055;-48
2023/04/04 02:30:28;;;;;;;0.30;0.30;;;;;;;18.83;45.24;102496.34;5117121;27;20486;-46
2023/04/04 02:32:57;;;;;;;0.20;0.20;;;;;;;18.82;45.17;102501.00;5116718;27;20517;-48
2023/04/04 02:35:23;;;;;;;0.20;0.20;;;;;;;18.82;45.56;102483.63;5117878;27;20058;-44
2023/04/04 02:37:49;;;;;;;0.20;0.20;;;;;;;18.82;45.45;102484.44;5117531;27;20047;-46
2023/04/04 02:40:15;;;;;;;0.20;0.20;;;;;;;18.83;45.41;102486.16;5117731;27;20053;-46
2023/04/04 02:42:42;;;;;;;0.20;0.20;;;;;;;18.83;45.19;102488.91;5117563;27;20441;-46
2023/04/04 02:45:09;;;;;;;0.20;0.20;;;;;;;18.83;45.33;102480.63;5118102;27;20046;-45
2023/04/04 02:47:35;;;;;;;0.20;0.20;;;;;;;18.83;45.17;102482.56;5117104;27;20067;-46
2023/04/04 02:50:01;;;;;;;0.30;0.30;;;;;;;18.83;45.45;102485.31;5117775;28;20058;-46
2023/04/04 02:52:26;;;;;;;0.20;0.20;;;;;;;18.82;45.35;102478.94;5117804;28;20091;-46
2023/04/04 02:54:52;;;;;;;0.30;0.30;;;;;;;18.82;45.27;102476.16;5118105;28;20547;-45
2023/04/04 02:57:17;;;;;;;0.25;0.25;;;;;;;18.83;45.46;102479.81;5118514;27;20044;-46
2023/04/04 02:59:43;;;;;;;0.30;0.30;;;;;;;18.82;45.31;102481.69;5117766;28;20050;-46
2023/04/04 03:02:09;;;;;;;0.20;0.20;;;;;;;18.84;45.29;102478.72;5117816;28;20617;-45
2023/04/04 03:04:35;;;;;;;0.20;0.20;;;;;;;18.83;45.20;102475.13;5117445;27;20072;-45
2023/04/04 03:07:02;;;;;;;0.25;0.25;;;;;;;18.83;45.30;102477.88;5117865;27;20070;-46
2023/04/04 03:09:28;;;;;;;0.30;0.30;;;;;;;18.83;45.22;102466.00;5107801;27;20040;-47
2023/04/04 03:11:54;;;;;;;0.20;0.20;;;;;;;18.83;45.26;102477.88;5095193;28;20054;-46
2023/04/04 03:14:20;;;;;;;0.30;0.30;;;;;;;18.83;45.29;102482.56;5117516;27;20047;-45
2023/04/04 03:16:48;;;;;;;0.20;0.20;;;;;;;18.82;45.38;102481.69;5117788;27;20047;-46
2023/04/04 03:19:14;;;;;;;0.30;0.30;;;;;;;18.83;45.12;102488.09;5117126;27;20515;-45
2023/04/04 03:21:39;;;;;;;0.30;0.30;;;;;;;18.82;45.36;102483.63;5117448;28;20084;-45
2023/04/04 03:24:05;;;;;;;0.22;0.22;;;;;;;18.83;45.27;102479.81;5116625;28;20047;-45
2023/04/04 03:26:31;;;;;;;0.20;0.20;;;;;;;18.82;45.27;102478.94;5117232;27;20055;-45
2023/04/04 03:28:57;;;;;;;0.30;0.30;;;;;;;18.83;45.36;102477.03;5117315;28;20051;-46
2023/04/04 03:31:22;;;;;;;0.20;0.20;;;;;;;18.82;45.21;102480.84;5115940;27;20046;-45
2023/04/04 03:33:48;;;;;;;0.20;0.20;;;;;;;18.83;45.07;102479.81;5105042;28;20677;-45
2023/04/04 03:36:14;;;;;;;0.20;0.20;;;;;;;18.82;45.10;102476.16;5116868;28;20115;-45
2023/04/04 03:38:40;;;;;;;0.20;0.20;;;;;;;18.84;45.29;102475.94;5098657;28;20051;-46
2023/04/04 03:41:07;;;;;;;0.30;0.30;;;;;;;18.83;45.37;102479.81;5116437;27;20043;-45
2023/04/04 03:43:33;;;;;;;0.20;0.20;;;;;;;18.84;45.36;102484.22;5115056;28;20039;-45
2023/04/04 03:46:00;;;;;;;0.20;0.20;;;;;;;18.83;44.97;102485.31;5115110;28;20043;-45
2023/04/04 03:48:27;;;;;;;0.20;0.20;;;;;;;18.83;45.00;102488.91;5115184;28;20047;-45
2023/04/04 03:50:52;;;;;;;0.22;0.22;;;;;;;18.83;45.21;102477.88;5114329;28;20047;-45
2023/04/04 03:53:18;;;;;;;0.20;0.20;;;;;;;18.83;45.03;102477.03;5115951;28;20058;-45
2023/04/04 03:55:44;;;;;;;0.20;0.20;;;;;;;18.81;45.17;102466.22;5116539;27;20100;-46
2023/04/04 03:58:10;;;;;;;0.30;0.30;;;;;;;18.82;45.00;102465.13;5116511;27;20047;-46
2023/04/04 04:00:35;;;;;;;0.20;0.20;;;;;;;18.83;45.04;102466.84;5116486;27;20053;-46
2023/04/04 04:03:01;;;;;;;0.20;0.20;;;;;;;18.83;44.95;102458.56;5116166;27;20047;-46
2023/04/04 04:05:27;;;;;;;0.20;0.20;;;;;;;18.83;45.34;102461.31;5116061;28;20050;-46
2023/04/04 04:07:53;;;;;;;0.20;0.20;;;;;;;18.82;44.87;102456.00;5116046;27;20043;-45
2023/04/04 04:10:18;;;;;;;0.28;0.28;;;;;;;18.82;45.07;102451.31;5128463;27;20049;-47
2023/04/04 04:12:44;;;;;;;0.30;0.30;;;;;;;18.83;45.15;102461.31;5120023;27;20047;-48
2023/04/04 04:15:10;;;;;;;0.30;0.30;;;;;;;18.83;45.22;102466.00;5116021;28;20305;-45
2023/04/04 04:17:39;;;;;;;0.30;0.30;;;;;;;18.83;45.12;102466.00;5116209;27;20091;-46
2023/04/04 04:20:06;;;;;;;0.20;0.20;;;;;;;18.83;44.94;102472.34;5115071;28;20054;-45
2023/04/04 04:22:31;;;;;;;0.20;0.20;;;;;;;18.83;45.17;102471.53;5114356;28;20054;-45
2023/04/04 04:24:57;;;;;;;0.30;0.30;;;;;;;18.82;45.08;102467.88;5095832;28;20048;-46
2023/04/04 04:27:23;;;;;;;0.20;0.20;;;;;;;18.84;45.07;102467.66;5094322;28;20070;-45
2023/04/04 04:29:49;;;;;;;0.22;0.22;;;;;;;18.83;45.13;102468.75;5095994;28;20645;-46
2023/04/04 04:32:16;;;;;;;0.20;0.20;;;;;;;18.83;44.95;102457.72;5106724;28;20039;-48
2023/04/04 04:34:42;;;;;;;0.20;0.20;;;;;;;18.82;44.94;102454.09;5097463;28;20082;-45
2023/04/04 04:37:07;;;;;;;0.20;0.20;;;;;;;18.81;45.10;102452.41;5115183;28;20414;-46
2023/04/04 04:39:34;;;;;;;0.20;0.20;;;;;;;18.82;45.28;102459.59;5115565;28;20410;-47
2023/04/04 04:41:59;;;;;;;0.20;0.20;;;;;;;18.82;45.03;102456.84;5115514;28;20076;-45
2023/04/04 04:44:25;;;;;;;0.30;0.30;;;;;;;18.83;44.99;102452.19;5115735;28;20047;-45
2023/04/04 04:46:51;;;;;;;0.22;0.22;;;;;;;18.82;45.22;102451.31;5115764;27;20285;-47
2023/04/04 04:49:17;;;;;;;0.20;0.20;;;;;;;18.82;45.01;102456.00;5115537;28;20051;-46
2023/04/04 04:51:42;;;;;;;0.20;0.20;;;;;;;18.83;45.02;102457.72;5115348;28;20526;-45
2023/04/04 04:54:09;;;;;;;0.30;0.30;;;;;;;18.83;45.16;102461.31;5115027;27;20063;-45
2023/04/04 04:56:36;;;;;;;0.30;0.30;;;;;;;18.82;45.14;102459.59;5115397;28;20059;-48
2023/04/04 04:59:02;;;;;;;0.20;0.20;;;;;;;18.83;44.94;102460.47;5096832;28;20129;-49
2023/04/04 05:01:27;;;;;;;0.30;0.30;;;;;;;18.82;45.19;102451.31;5115306;28;20043;-49
2023/04/04 05:03:53;;;;;;;0.20;0.20;;;;;;;18.82;44.94;102456.84;5115512;28;20054;-48
2023/04/04 05:06:19;;;;;;;0.20;0.20;;;;;;;18.82;45.16;102456.84;5115316;28;20092;-47
2023/04/04 05:08:45;;;;;;;0.20;0.20;;;;;;;18.82;44.91;102458.78;5115322;27;20398;-48
2023/04/04 05:11:10;;;;;;;0.20;0.20;;;;;;;18.82;45.02;102465.13;5115402;28;20515;-48
2023/04/04 05:13:36;;;;;;;0.30;0.30;;;;;;;18.82;45.12;102465.13;5115421;28;20058;-48
2023/04/04 05:16:02;;;;;;;0.30;0.30;;;;;;;18.82;45.12;102456.00;5114673;28;20407;-47
2023/04/04 05:18:28;;;;;;;0.30;0.30;;;;;;;18.83;45.09;102458.56;5114877;27;20126;-49
2023/04/04 05:20:53;;;;;;;0.30;0.30;;;;;;;18.82;44.93;102459.59;5115059;28;20483;-48
2023/04/04 05:23:20;;;;;;;0.30;0.30;;;;;;;18.83;45.04;102463.25;5115339;27;20040;-47
2023/04/04 05:25:49;;;;;;;0.30;0.30;;;;;;;18.82;44.92;102470.66;5096821;28;20047;-48
2023/04/04 05:28:15;;;;;;;0.30;0.30;;;;;;;18.82;45.09;102467.06;5113114;28;20055;-48
2023/04/04 05:30:40;;;;;;;0.30;0.30;;;;;;;18.82;44.85;102470.66;5115276;27;20391;-47
2023/04/04 05:33:07;;;;;;;0.20;0.20;;;;;;;18.83;44.96;102471.53;5115566;27;20100;-48
2023/04/04 05:35:33;;;;;;;0.30;0.30;;;;;;;18.82;45.05;102478.94;5114486;28;20050;-47
2023/04/04 05:37:58;;;;;;;0.30;0.30;;;;;;;18.82;45.04;102478.94;5097082;28;20071;-47
2023/04/04 05:40:24;;;;;;;0.30;0.30;;;;;;;18.81;45.02;102468.97;5116828;27;20525;-50
2023/04/04 05:42:55;;;;;;;0.20;0.20;;;;;;;18.82;44.90;102476.16;5118605;27;20092;-49
2023/04/04 05:45:20;;;;;;;0.30;0.30;;;;;;;18.83;44.96;102482.56;5119024;27;20046;-47
2023/04/04 05:47:46;;;;;;;0.20;0.20;;;;;;;18.82;45.02;102476.16;5116898;28;20078;-49
2023/04/04 05:50:12;;;;;;;0.30;0.30;;;;;;;18.83;44.73;102486.16;5118724;28;20047;-48
2023/04/04 05:52:37;;;;;;;0.20;0.20;;;;;;;18.82;45.04;102498.25;5118381;27;20130;-48
2023/04/04 05:55:04;;;;;;;0.30;0.30;;;;;;;18.82;45.19;102492.72;5119220;28;20053;-47
2023/04/04 05:57:29;;;;;;;0.30;0.30;;;;;;;18.82;44.78;102505.69;5118761;28;20100;-49
2023/04/04 05:59:55;;;;;;;0.20;0.20;;;;;;;18.82;45.08;102509.28;5118590;28;20043;-52
2023/04/04 06:02:21;;;;;;;0.30;0.30;;;;;;;18.82;45.19;102511.22;5118541;28;20057;-48
2023/04/04 06:04:47;;;;;;;0.30;0.30;;;;;;;18.82;44.83;102513.97;5118742;27;20138;-47
2023/04/04 06:07:12;;;;;;;0.30;0.30;;;;;;;18.83;44.82;102516.53;5118557;27;20043;-47
2023/04/04 06:09:39;;;;;;;0.20;0.20;;;;;;;18.83;45.01;102512.91;5118575;28;20051;-49
2023/04/04 06:12:05;;;;;;;0.30;0.30;;;;;;;18.82;44.71;102509.28;5118205;27;20042;-49
2023/04/04 06:14:31;;;;;;;0.30;0.30;;;;;;;18.83;44.76;102510.16;5118523;28;20122;-48
2023/04/04 06:16:57;;;;;;;0.20;0.20;;;;;;;18.82;44.70;102516.72;5118122;27;20055;-50
2023/04/04 06:19:22;;;;;;;0.30;0.30;;;;;;;18.82;44.77;102505.69;5117976;27;20331;-49
2023/04/04 06:21:48;;;;;;;0.20;0.20;;;;;;;18.82;45.25;102514.81;5117883;28;20070;-49
2023/04/04 06:24:14;;;;;;;0.25;0.25;;;;;;;18.80;45.06;102517.81;5118082;28;20045;-48
2023/04/04 06:26:39;;;;;;;0.20;0.20;;;;;;;18.81;44.79;102521.41;5118351;28;20682;-48
2023/04/04 06:29:05;;;;;;;0.20;0.20;;;;;;;18.83;45.01;102521.19;5117994;28;20051;-48
2023/04/04 06:31:31;;;;;;;0.30;0.30;;;;;;;18.81;44.86;102518.66;5116245;27;20047;-47
2023/04/04 06:33:57;;;;;;;0.30;0.30;;;;;;;18.82;44.78;102523.09;5116197;28;20059;-47
2023/04/04 06:36:22;;;;;;;0.20;0.20;;;;;;;18.82;44.97;102530.53;5117931;27;20043;-47
2023/04/04 06:38:48;;;;;;;0.20;0.20;;;;;;;18.82;44.86;102520.34;5117290;28;20091;-48
2023/04/04 06:41:14;;;;;;;0.28;0.28;;;;;;;18.82;44.75;102530.53;5117461;27;20039;-48
2023/04/04 06:43:40;;;;;;;0.20;0.20;;;;;;;18.83;45.01;102526.72;5117661;28;20103;-48
2023/04/04 06:46:06;;;;;;;0.30;0.30;;;;;;;18.81;44.87;102529.69;5118098;27;20047;-46
2023/04/04 06:48:31;;;;;;;0.30;0.30;;;;;;;18.82;45.07;102530.53;5117759;28;20059;-48
2023/04/04 06:50:57;;;;;;;0.20;0.20;;;;;;;18.82;44.73;102530.53;5116903;27;20045;-50
2023/04/04 06:53:23;;;;;;;0.30;0.30;;;;;;;18.83;44.99;102532.25;5117394;28;20495;-47
2023/04/04 06:55:50;;;;;;;0.30;0.30;;;;;;;18.83;44.98;102538.59;5115795;28;20043;-47
2023/04/04 06:58:16;;;;;;;0.20;0.20;;;;;;;18.81;44.70;102537.97;5117622;27;20444;-48
2023/04/04 07:00:41;;;;;;;0.28;0.28;;;;;;;18.83;44.77;102544.13;5117543;27;20523;-48
2023/04/04 07:03:07;;;;;;;0.30;0.30;;;;;;;18.83;44.88;102548.81;5117368;28;20085;-47
2023/04/04 07:05:38;;;;;;;0.20;0.20;;;;;;;18.83;44.67;102540.53;5117576;27;20074;-48
2023/04/04 07:08:03;;;;;;;0.20;0.20;;;;;;;18.82;44.74;102545.19;5116442;28;20077;-47
2023/04/04 07:10:29;;;;;;;0.30;0.30;;;;;;;18.82;44.91;102538.81;5117782;27;20047;-49
2023/04/04 07:12:55;;;;;;;0.20;0.20;;;;;;;18.82;44.86;102541.56;5114800;27;20051;-47
2023/04/04 07:15:21;;;;;;;0.20;0.20;;;;;;;18.82;44.68;102541.56;5117671;27;20423;-48
2023/04/04 07:17:48;;;;;;;0.20;0.20;;;;;;;18.82;44.66;102538.81;5118116;27;20054;-49
2023/04/04 07:20:14;;;;;;;0.30;0.30;;;;;;;18.80;44.93;102545.44;5115964;28;20061;-47
2023/04/04 07:22:40;;;;;;;0.20;0.20;;;;;;;18.82;44.74;102541.56;5117178;27;20035;-50
2023/04/04 07:25:07;;;;;;;0.30;0.30;;;;;;;18.82;44.74;102542.41;5116881;27;20039;-47
2023/04/04 07:27:32;;;;;;;0.20;0.20;;;;;;;18.82;45.03;102536.06;5099053;28;20126;-48
2023/04/04 07:29:58;;;;;;;0.30;0.30;;;;;;;18.83;44.71;102543.28;5117349;28;20515;-47
2023/04/04 07:32:24;;;;;;;0.20;0.20;;;;;;;18.82;44.86;102533.28;5116613;27;20047;-48
2023/04/04 07:34:50;;;;;;;0.30;0.30;;;;;;;18.83;44.66;102540.53;5117159;28;20043;-48
2023/04/04 07:37:16;;;;;;;0.20;0.20;;;;;;;18.82;44.92;102539.66;5117386;27;20070;-48
2023/04/04 07:39:41;;;;;;;0.20;0.20;;;;;;;18.83;44.79;102543.28;5116893;27;20082;-49
2023/04/04 07:42:07;;;;;;;0.20;0.20;;;;;;;18.82;44.77;102527.78;5115812;27;20452;-50
2023/04/04 07:44:33;;;;;;;0.20;0.20;;;;;;;18.82;44.67;102534.13;5101582;28;20047;-47
2023/04/04 07:46:59;;;;;;;0.30;0.30;;;;;;;18.82;44.95;102536.06;5116581;28;20055;-50
2023/04/04 07:49:35;;;;;;;0.20;0.20;;;;;;;18.82;44.96;102530.53;5099859;28;20632;-48
2023/04/04 07:52:01;;;;;;;0.20;0.20;;;;;;;18.81;44.88;102524.19;5116121;28;20533;-47
2023/04/04 07:54:27;;;;;;;0.22;0.22;;;;;;;18.81;44.69;102513.13;5116528;28;20061;-48
2023/04/04 07:56:52;;;;;;;0.20;0.20;;;;;;;18.81;44.56;102518.66;5116013;27;20043;-48
2023/04/04 07:59:18;;;;;;;0.20;0.20;;;;;;;18.81;44.67;102515.91;5116527;28;20049;-48
2023/04/04 08:01:44;;;;;;;0.20;0.20;;;;;;;18.82;44.77;102512.06;5116067;27;20120;-47
2023/04/04 08:04:11;;;;;;;0.20;0.20;;;;;;;18.82;44.65;102516.72;5115430;28;20582;-49
2023/04/04 08:06:38;;;;;;;0.30;0.30;;;;;;;18.81;44.97;102510.38;5116019;28;20043;-48
2023/04/04 08:09:04;;;;;;;0.30;0.30;;;;;;;18.82;44.67;102516.72;5116523;27;20054;-48
2023/04/04 08:11:30;;;;;;;0.30;0.30;;;;;;;18.82;44.95;102516.72;5114512;28;20047;-49
2023/04/04 08:13:55;;;;;;;0.30;0.30;;;;;;;18.82;44.71;102517.56;5115740;28;20406;-48
2023/04/04 08:16:22;;;;;;;0.20;0.20;;;;;;;18.82;44.74;102511.22;5115970;27;20100;-47
2023/04/04 08:18:48;;;;;;;0.22;0.22;;;;;;;18.82;44.59;102517.56;5115844;27;20046;-49
2023/04/04 08:21:13;;;;;;;0.20;0.20;;;;;;;18.82;44.70;102517.56;5114740;28;20079;-49
2023/04/04 08:23:39;;;;;;;0.30;0.30;;;;;;;18.82;44.93;102516.72;5115850;28;20053;-48
2023/04/04 08:26:05;;;;;;;0.20;0.20;;;;;;;18.81;44.88;102510.38;5115883;27;20486;-49
2023/04/04 08:28:31;;;;;;;0.20;0.20;;;;;;;18.82;44.66;102514.81;5115876;28;20051;-47
2023/04/04 08:30:56;;;;;;;0.30;0.30;;;;;;;18.82;44.95;102520.34;5116334;27;20447;-47
2023/04/04 08:33:23;;;;;;;0.20;0.20;;;;;;;18.81;45.04;102524.19;5115878;28;20051;-48
2023/04/04 08:35:59;;;;;;;0.30;0.30;;;;;;;18.80;44.88;102517.81;5116096;27;20241;-49
2023/04/04 08:38:26;;;;;;;0.30;0.30;;;;;;;18.82;44.73;102525.84;5115815;27;20139;-49
2023/04/04 08:40:52;;;;;;;0.30;0.30;;;;;;;18.82;44.92;102522.25;5115678;27;20104;-49
2023/04/04 08:43:19;;;;;;;0.28;0.28;;;;;;;18.82;45.02;102520.34;5107362;28;20075;-47
2023/04/04 08:45:45;;;;;;;0.30;0.30;;;;;;;18.82;44.77;102513.97;5115566;27;20043;-49
2023/04/04 08:48:13;;;;;;;0.30;0.30;;;;;;;18.83;45.02;102515.69;5115606;27;20410;-48
2023/04/04 08:50:40;;;;;;;0.20;0.20;;;;;;;18.82;44.94;102520.34;5096609;28;20546;-49
2023/04/04 08:53:08;;;;;;;0.30;0.30;;;;;;;18.82;44.81;102517.56;5098298;28;20669;-48
2023/04/04 08:55:33;;;;;;;0.20;0.20;;;;;;;18.82;44.77;102513.97;5115214;28;20043;-47
2023/04/04 08:58:00;;;;;;;0.30;0.30;;;;;;;18.82;44.86;102508.47;5114417;28;20306;-48
2023/04/04 09:00:25;;;;;;;0.30;0.30;;;;;;;18.82;44.83;102511.22;5094736;28;20588;-48
2023/04/04 09:02:58;;;;;;;0.30;0.30;;;;;;;18.81;45.12;102515.91;5111812;28;20050;-48
2023/04/04 09:05:25;;;;;;;0.30;0.30;;;;;;;18.82;45.00;102522.25;5115218;27;20051;-49
2023/04/04 09:07:52;;;;;;;0.20;0.20;;;;;;;18.82;44.82;102520.34;5113985;28;20380;-49
2023/04/04 09:10:18;;;;;;;0.35;0.35;;;;;;;18.82;44.95;102516.72;5114063;28;20718;-48
2023/04/04 09:12:46;;;;;;;0.30;0.30;;;;;;;18.83;44.67;102518.44;5115351;27;20181;-48
2023/04/04 09:15:12;;;;;;;0.20;0.20;;;;;;;18.83;44.79;102518.44;5096902;28;20047;-47
2023/04/04 09:17:38;;;;;;;0.30;0.30;;;;;;;18.80;44.80;102517.81;5115496;28;20511;-48
2023/04/04 09:20:40;;;;;;;0.20;0.20;;;;;;;18.82;44.85;102513.97;5115483;28;20035;-48
2023/04/04 09:23:10;;;;;;;0.30;0.30;;;;;;;18.81;44.85;102504.84;5102905;28;20104;-47
2023/04/04 09:25:37;;;;;;;0.30;0.30;;;;;;;18.80;44.83;102495.75;5097346;28;20043;-47
2023/04/04 09:28:04;;;;;;;0.28;0.28;;;;;;;18.81;44.73;102507.63;5113764;28;20047;-49
2023/04/04 09:30:32;;;;;;;0.20;0.20;;;;;;;18.82;44.97;102514.81;5115510;27;20275;-49
2023/04/04 09:33:01;;;;;;;0.30;0.30;;;;;;;18.82;44.77;102508.47;5114079;27;20078;-49
2023/04/04 09:35:26;;;;;;;0.28;0.28;;;;;;;18.80;44.78;102498.50;5113884;28;20043;-47
2023/04/04 09:37:52;;;;;;;0.20;0.20;;;;;;;18.82;44.78;102501.00;5115323;27;20496;-47
2023/04/04 09:40:18;;;;;;;0.20;0.20;;;;;;;18.82;45.05;102494.66;5115112;28;20128;-48
2023/04/04 09:42:44;;;;;;;0.20;0.20;;;;;;;18.81;44.97;102502.09;5114371;28;20080;-48
2023/04/04 09:45:10;;;;;;;0.20;0.20;;;;;;;18.82;44.91;102492.72;5114617;27;20083;-49
2023/04/04 09:47:42;;;;;;;0.20;0.20;;;;;;;18.81;44.84;102496.56;5114844;28;20082;-48
2023/04/04 09:50:08;;;;;;;0.20;0.20;;;;;;;18.82;44.90;102495.50;5115055;28;20051;-48
2023/04/04 09:52:35;;;;;;;0.20;0.20;;;;;;;18.80;45.01;102476.41;5114907;28;20437;-48
2023/04/04 09:55:02;;;;;;;0.20;0.20;;;;;;;18.82;44.73;102481.69;5115343;27;20043;-48
2023/04/04 09:57:29;;;;;;;0.20;0.20;;;;;;;18.81;44.77;102485.53;5113518;28;20491;-49
2023/04/04 09:59:58;;;;;;;0.28;0.28;;;;;;;18.82;45.08;102486.38;5108643;28;20059;-47
2023/04/04 10:02:24;;;;;;;0.30;0.30;;;;;;;18.82;44.84;102484.44;5115001;27;20486;-47
2023/04/04 10:04:52;;;;;;;0.20;0.20;;;;;;;18.82;44.83;102484.44;5096900;28;20507;-48
2023/04/04 10:07:31;;;;;;;0.30;0.30;;;;;;;18.82;45.19;102487.22;5114738;28;20554;-48
2023/04/04 10:10:00;;;;;;;0.28;0.28;;;;;;;18.83;44.92;102490.84;5114585;27;20074;-49
2023/04/04 10:12:26;;;;;;;0.30;0.30;;;;;;;18.81;44.84;102488.28;5105800;28;20043;-49
2023/04/04 10:15:00;;;;;;;0.30;0.30;;;;;;;18.82;44.95;102480.84;5114935;27;20258;-48
2023/04/04 10:17:41;;;;;;;0.20;0.20;;;;;;;18.82;44.77;102478.09;5114982;27;20051;-48
2023/04/04 10:20:08;;;;;;;0.20;0.20;;;;;;;18.82;45.02;102480.84;5114883;27;20055;-51
2023/04/04 10:22:35;;;;;;;0.30;0.30;;;;;;;18.81;44.94;102482.78;5113155;28;20439;-47
2023/04/04 10:25:04;;;;;;;0.20;0.20;;;;;;;18.81;44.86;102480.00;5113508;27;20039;-48
2023/04/04 10:27:31;;;;;;;0.20;0.20;;;;;;;18.81;44.93;102474.50;5116516;28;20108;-49
2023/04/04 10:29:57;;;;;;;0.20;0.20;;;;;;;18.82;45.07;102473.41;5117893;27;20250;-48
2023/04/04 10:32:28;;;;;;;0.20;0.20;;;;;;;18.81;45.03;102477.25;5117954;27;20059;-48
2023/04/04 10:35:00;;;;;;;0.28;0.28;;;;;;;18.82;45.05;102472.56;5099826;28;20137;-48
2023/04/04 10:37:27;;;;;;;0.20;0.20;;;;;;;18.81;45.09;102466.22;5118084;27;20434;-49
2023/04/04 10:40:01;;;;;;;0.20;0.20;;;;;;;18.81;45.06;102463.47;5111856;28;20458;-47
2023/04/04 10:42:28;;;;;;;0.30;0.30;;;;;;;18.82;44.91;102458.78;5110762;28;20043;-48
2023/04/04 10:44:54;;;;;;;0.20;0.20;;;;;;;18.82;44.92;102464.28;5117363;27;20043;-47
2023/04/04 10:47:22;;;;;;;0.30;0.30;;;;;;;18.81;45.09;102460.69;5117630;28;20044;-48
2023/04/04 10:49:49;;;;;;;0.30;0.30;;;;;;;18.81;44.83;102452.41;5116288;28;20051;-48
2023/04/04 10:52:18;;;;;;;0.30;0.30;;;;;;;18.80;45.04;102446.06;5107989;28;20190;-48
2023/04/04 10:54:45;;;;;;;0.30;0.30;;;;;;;18.82;45.07;102444.97;5098925;28;20530;-49
2023/04/04 10:57:12;;;;;;;0.30;0.30;;;;;;;18.81;44.92;102435.84;5117855;28;20077;-48
2023/04/04 11:00:02;;;;;;;0.20;0.20;;;;;;;18.83;45.05;102432.88;5099161;28;20043;-48
2023/04/04 11:02:54;;;;;;;0.30;0.30;;;;;;;18.80;44.88;102437.78;5106996;28;20049;-48
2023/04/04 11:08:06;;;;;;;0.20;0.20;;;;;;;18.81;44.78;102416.53;5174768;27;20488;-46
2023/04/04 11:10:38;;;;;;;0.20;0.20;;;;;;;18.81;44.92;102416.53;5134998;27;20046;-48
2023/04/04 11:13:12;;;;;;;;;;;;;;;18.81;45.09;102413.78;5134251;27;20118;-48
2023/04/04 11:21:07;;;;;;;0.20;0.20;;;;;;;18.84;44.79;102401.41;5172952;27;20383;-49
2023/04/04 11:26:30;;;;;;;0.30;0.30;;;;;;;18.83;44.77;102403.34;5174382;27;20119;-50
2023/04/04 11:28:58;;;;;;;0.30;0.30;;;;;;;18.83;44.90;102410.78;5153542;27;20054;-46
2023/04/04 11:31:27;;;;;;;0.20;0.20;;;;;;;18.82;44.96;102403.56;5147887;27;20054;-46
2023/04/04 11:34:03;;;;;;;0.20;0.20;;;;;;;18.82;44.92;102401.66;5131978;27;20729;-46